Погода Рурренабакена неделю

Бени, Боливия

20 - 26 июля
  • 20июля
    Сегодня
    +15°
    +31°
    Ясно и безоблачно
    ВремяПогодаТемператураВлажностьДавлениеВетер, м/сВероятность осадков
    02:00Ясно и безоблачно+16°C95 %741 мм1.8 м/с5 %
    05:00Ясно и безоблачно+15°C94 %741 мм1.6 м/с5 %
    08:00Ясно и безоблачно+17°C88 %743 мм1.1 м/с5 %
    11:00Ясно и безоблачно+27°C60 %744 мм2.2 м/с5 %
    14:00Ясно и безоблачно+30°C48 %741 мм1.9 м/с2 %
    17:00Ясно и безоблачно+30°C70 %740 мм1.5 м/с2 %
    20:00Ясно и безоблачно+25°C72 %740 мм0.6 м/с5 %
    23:00Ясно и безоблачно+21°C86 %740 мм1.2 м/с5 %
  • 21июля
    Воскресенье
    +16°
    +32°
    Ясно и безоблачно
    ВремяПогодаТемператураВлажностьДавлениеВетер, м/сВероятность осадков
    02:00Ясно и безоблачно+18°C93 %739 мм1.5 м/с5 %
    05:00Ясно и безоблачно+16°C94 %738 мм1.8 м/с5 %
    08:00Ясно и безоблачно+17°C89 %740 мм1.1 м/с5 %
    11:00Ясно и безоблачно+28°C59 %741 мм1.8 м/с5 %
    14:00Ясно и безоблачно+31°C44 %738 мм2.9 м/с3 %
    17:00Ясно и безоблачно+31°C58 %737 мм2.3 м/с3 %
    20:00Ясно и безоблачно+26°C67 %738 мм1.1 м/с5 %
    23:00Ясно и безоблачно+22°C75 %739 мм0.8 м/с5 %
  • 22июля
    Понедельник
    +17°
    +33°
    Ясно и безоблачно
    ВремяПогодаТемператураВлажностьДавлениеВетер, м/сВероятность осадков
    02:00Ясно и безоблачно+19°C91 %738 мм1.5 м/с5 %
    05:00Ясно и безоблачно+18°C95 %739 мм1.7 м/с5 %
    08:00Ясно и безоблачно+19°C88 %741 мм1.2 м/с5 %
    11:00Ясно и безоблачно+29°C59 %742 мм2.2 м/с5 %
    14:00Ясно и безоблачно+32°C46 %740 мм2.2 м/с4 %
    17:00Практически безоблачно+31°C66 %739 мм1.4 м/с7 %
    20:00Ясно и безоблачно+26°C76 %740 мм1.7 м/с5 %
    23:00Ясно и безоблачно+23°C80 %741 мм2.0 м/с5 %
  • 23июля
    Вторник
    +17°
    +33°
    Ясно и безоблачно
    ВремяПогодаТемператураВлажностьДавлениеВетер, м/сВероятность осадков
    02:00Ясно и безоблачно+20°C89 %740 мм1.3 м/с5 %
    05:00Ясно и безоблачно+18°C94 %740 мм1.4 м/с5 %
    08:00Ясно и безоблачно+19°C88 %742 мм1.1 м/с5 %
    11:00Ясно и безоблачно+29°C59 %743 мм2.4 м/с5 %
    14:00Ясно и безоблачно+32°C42 %740 мм2.2 м/с5 %
    17:00Ясно и безоблачно+32°C57 %739 мм1.7 м/с5 %
    20:00Ясно и безоблачно+27°C63 %739 мм0.9 м/с5 %
    23:00Ясно и безоблачно+24°C78 %739 мм1.3 м/с5 %
  • 24июля
    Среда
    +17°
    +33°
    Практически безоблачно
    ВремяПогодаТемператураВлажностьДавлениеВетер, м/сВероятность осадков
    02:00Ясно и безоблачно+20°C87 %739 мм1.3 м/с5 %
    05:00Ясно и безоблачно+18°C91 %739 мм1.3 м/с5 %
    08:00Ясно и безоблачно+19°C86 %740 мм1.1 м/с5 %
    11:00Ясно и безоблачно+30°C56 %742 мм1.9 м/с5 %
    14:00Практически безоблачно+33°C40 %739 мм3.4 м/с5 %
    17:00Ясно и безоблачно+33°C47 %738 мм2.9 м/с5 %
    20:00Ясно и безоблачно+28°C57 %738 мм1.9 м/с5 %
    23:00Ясно и безоблачно+25°C72 %739 мм1.0 м/с5 %
Мы используем cookies
Соглашаюсь